sensor_id;sensor_type;location;lat;lon;timestamp;pressure;altitude;pressure_sealevel;temperature;humidity
64632;BME280;58358;50.936;0.246;2022-08-04T00:00:53;100827.17;;;18.82;65.23
64632;BME280;58358;50.936;0.246;2022-08-04T00:03:16;100831.15;;;20.16;62.29
64632;BME280;58358;50.936;0.246;2022-08-04T00:05:48;100832.82;;;20.03;62.49
64632;BME280;58358;50.936;0.246;2022-08-04T00:08:09;100832.92;;;20.40;61.27
64632;BME280;58358;50.936;0.246;2022-08-04T00:10:28;100833.85;;;19.90;61.95
64632;BME280;58358;50.936;0.246;2022-08-04T00:12:55;100841.29;;;20.71;60.61
64632;BME280;58358;50.936;0.246;2022-08-04T00:15:20;100842.36;;;20.26;61.15
64632;BME280;58358;50.936;0.246;2022-08-04T00:17:47;100837.87;;;20.42;60.79
64632;BME280;58358;50.936;0.246;2022-08-04T00:20:13;100832.45;;;19.15;64.97
64632;BME280;58358;50.936;0.246;2022-08-04T00:22:37;100837.68;;;20.45;62.12
64632;BME280;58358;50.936;0.246;2022-08-04T00:25:01;100838.14;;;20.71;60.97
64632;BME280;58358;50.936;0.246;2022-08-04T00:27:25;100835.32;;;20.05;62.43
64632;BME280;58358;50.936;0.246;2022-08-04T00:29:50;100831.97;;;20.07;62.05
64632;BME280;58358;50.936;0.246;2022-08-04T00:32:17;100832.29;;;19.97;61.98
64632;BME280;58358;50.936;0.246;2022-08-04T00:34:41;100831.62;;;20.72;60.24
64632;BME280;58358;50.936;0.246;2022-08-04T00:37:06;100827.41;;;21.41;58.79
64632;BME280;58358;50.936;0.246;2022-08-04T00:39:32;100824.98;;;21.40;58.35
64632;BME280;58358;50.936;0.246;2022-08-04T00:44:29;100827.26;;;20.61;59.94
64632;BME280;58358;50.936;0.246;2022-08-04T00:47:01;100827.40;;;21.41;58.84
64632;BME280;58358;50.936;0.246;2022-08-04T00:49:21;100826.99;;;19.42;62.66
64632;BME280;58358;50.936;0.246;2022-08-04T00:51:47;100826.33;;;19.92;60.87
64632;BME280;58358;50.936;0.246;2022-08-04T00:54:10;100823.68;;;20.98;58.62
64632;BME280;58358;50.936;0.246;2022-08-04T00:59:03;100824.54;;;20.35;59.90
64632;BME280;58358;50.936;0.246;2022-08-04T01:01:30;100823.80;;;20.21;59.96
64632;BME280;58358;50.936;0.246;2022-08-04T01:03:50;100816.40;;;20.69;58.69
64632;BME280;58358;50.936;0.246;2022-08-04T01:06:20;100814.25;;;21.32;57.75
64632;BME280;58358;50.936;0.246;2022-08-04T01:08:48;100818.43;;;20.81;58.61
64632;BME280;58358;50.936;0.246;2022-08-04T01:11:12;100815.59;;;21.55;56.97
64632;BME280;58358;50.936;0.246;2022-08-04T01:13:37;100817.86;;;21.08;58.54
64632;BME280;58358;50.936;0.246;2022-08-04T01:15:59;100815.91;;;21.41;57.50
64632;BME280;58358;50.936;0.246;2022-08-04T01:18:21;100816.72;;;21.30;58.26
64632;BME280;58358;50.936;0.246;2022-08-04T01:20:49;100824.33;;;20.12;62.02
64632;BME280;58358;50.936;0.246;2022-08-04T01:23:23;100820.45;;;19.78;61.55
64632;BME280;58358;50.936;0.246;2022-08-04T01:25:49;100818.51;;;20.82;58.82
64632;BME280;58358;50.936;0.246;2022-08-04T01:28:17;100823.16;;;20.62;59.46
64632;BME280;58358;50.936;0.246;2022-08-04T01:30:25;100824.61;;;20.65;59.52
64632;BME280;58358;50.936;0.246;2022-08-04T01:32:52;100820.66;;;20.79;59.84
64632;BME280;58358;50.936;0.246;2022-08-04T01:35:22;100819.65;;;21.04;59.48
64632;BME280;58358;50.936;0.246;2022-08-04T01:37:48;100819.75;;;20.69;59.34
64632;BME280;58358;50.936;0.246;2022-08-04T01:40:07;100816.35;;;19.31;63.00
64632;BME280;58358;50.936;0.246;2022-08-04T01:42:32;100818.34;;;20.95;59.20
64632;BME280;58358;50.936;0.246;2022-08-04T01:44:56;100819.82;;;20.86;58.99
64632;BME280;58358;50.936;0.246;2022-08-04T01:47:21;100814.88;;;20.28;60.57
64632;BME280;58358;50.936;0.246;2022-08-04T01:49:49;100808.51;;;19.45;62.41
64632;BME280;58358;50.936;0.246;2022-08-04T01:52:16;100810.27;;;20.32;60.19
64632;BME280;58358;50.936;0.246;2022-08-04T01:54:40;100808.54;;;20.57;60.30
64632;BME280;58358;50.936;0.246;2022-08-04T01:57:04;100805.13;;;20.89;58.32
64632;BME280;58358;50.936;0.246;2022-08-04T01:59:29;100807.43;;;21.66;56.69
64632;BME280;58358;50.936;0.246;2022-08-04T02:01:53;100808.93;;;20.69;58.55
64632;BME280;58358;50.936;0.246;2022-08-04T02:04:19;100808.18;;;20.96;59.08
64632;BME280;58358;50.936;0.246;2022-08-04T02:06:51;100805.98;;;20.56;59.54
64632;BME280;58358;50.936;0.246;2022-08-04T02:09:16;100807.30;;;20.64;59.81
64632;BME280;58358;50.936;0.246;2022-08-04T02:11:38;100807.65;;;20.64;60.29
64632;BME280;58358;50.936;0.246;2022-08-04T02:14:06;100801.67;;;21.36;58.28
64632;BME280;58358;50.936;0.246;2022-08-04T02:16:31;100804.64;;;19.53;62.02
64632;BME280;58358;50.936;0.246;2022-08-04T02:18:59;100804.63;;;20.63;59.60
64632;BME280;58358;50.936;0.246;2022-08-04T02:21:19;100806.90;;;20.84;59.58
64632;BME280;58358;50.936;0.246;2022-08-04T02:23:43;100808.06;;;20.49;59.24
64632;BME280;58358;50.936;0.246;2022-08-04T02:26:12;100802.93;;;20.86;58.29
64632;BME280;58358;50.936;0.246;2022-08-04T02:28:37;100804.41;;;20.96;58.62
64632;BME280;58358;50.936;0.246;2022-08-04T02:31:09;100800.72;;;20.22;60.86
64632;BME280;58358;50.936;0.246;2022-08-04T02:33:36;100797.58;;;20.44;60.71
64632;BME280;58358;50.936;0.246;2022-08-04T02:35:59;100793.29;;;21.26;58.58
64632;BME280;58358;50.936;0.246;2022-08-04T02:38:23;100797.93;;;20.62;60.26
64632;BME280;58358;50.936;0.246;2022-08-04T02:40:40;100794.78;;;19.20;63.40
64632;BME280;58358;50.936;0.246;2022-08-04T02:43:05;100798.64;;;19.85;62.53
64632;BME280;58358;50.936;0.246;2022-08-04T02:45:31;100794.93;;;18.92;64.30
64632;BME280;58358;50.936;0.246;2022-08-04T02:47:56;100797.80;;;20.04;60.83
64632;BME280;58358;50.936;0.246;2022-08-04T02:50:21;100796.22;;;20.35;61.70
64632;BME280;58358;50.936;0.246;2022-08-04T02:52:46;100798.76;;;18.20;65.21
64632;BME280;58358;50.936;0.246;2022-08-04T02:55:12;100804.37;;;20.65;60.74
64632;BME280;58358;50.936;0.246;2022-08-04T02:57:37;100801.93;;;21.03;58.93
64632;BME280;58358;50.936;0.246;2022-08-04T03:00:07;100801.66;;;20.31;60.44
64632;BME280;58358;50.936;0.246;2022-08-04T03:02:32;100801.26;;;20.57;60.59
64632;BME280;58358;50.936;0.246;2022-08-04T03:04:56;100800.59;;;20.35;60.48
64632;BME280;58358;50.936;0.246;2022-08-04T03:07:30;100798.92;;;20.45;60.63
64632;BME280;58358;50.936;0.246;2022-08-04T03:10:09;100791.51;;;20.13;60.09
64632;BME280;58358;50.936;0.246;2022-08-04T03:14:48;100789.92;;;21.26;57.65
64632;BME280;58358;50.936;0.246;2022-08-04T03:19:46;100791.36;;;20.97;58.08
64632;BME280;58358;50.936;0.246;2022-08-04T03:26:56;100788.63;;;21.53;57.01
64632;BME280;58358;50.936;0.246;2022-08-04T03:29:25;100792.05;;;21.53;56.91
64632;BME280;58358;50.936;0.246;2022-08-04T03:31:46;100792.82;;;21.00;57.83
64632;BME280;58358;50.936;0.246;2022-08-04T03:34:05;100793.54;;;21.39;57.08
64632;BME280;58358;50.936;0.246;2022-08-04T03:36:36;100790.57;;;21.20;57.46
64632;BME280;58358;50.936;0.246;2022-08-04T03:39:02;100788.24;;;21.28;56.63
64632;BME280;58358;50.936;0.246;2022-08-04T03:41:27;100784.04;;;19.98;59.75
64632;BME280;58358;50.936;0.246;2022-08-04T03:48:43;100781.09;;;20.26;59.74
64632;BME280;58358;50.936;0.246;2022-08-04T03:51:01;100781.34;;;21.19;57.24
64632;BME280;58358;50.936;0.246;2022-08-04T03:53:35;100782.09;;;21.79;55.88
64632;BME280;58358;50.936;0.246;2022-08-04T04:00:40;100793.89;;;20.69;57.97
64632;BME280;58358;50.936;0.246;2022-08-04T04:03:13;100794.55;;;20.47;58.59
64632;BME280;58358;50.936;0.246;2022-08-04T04:05:46;100792.33;;;20.12;59.41
64632;BME280;58358;50.936;0.246;2022-08-04T04:08:00;100795.95;;;20.92;58.96
64632;BME280;58358;50.936;0.246;2022-08-04T04:10:24;100799.03;;;19.45;61.59
64632;BME280;58358;50.936;0.246;2022-08-04T04:15:15;100802.22;;;19.55;60.02
64632;BME280;58358;50.936;0.246;2022-08-04T04:17:44;100799.28;;;19.42;60.41
64632;BME280;58358;50.936;0.246;2022-08-04T04:20:11;100801.58;;;19.66;59.04
64632;BME280;58358;50.936;0.246;2022-08-04T04:22:32;100804.95;;;20.37;57.43
64632;BME280;58358;50.936;0.246;2022-08-04T04:24:59;100806.97;;;20.18;56.51
64632;BME280;58358;50.936;0.246;2022-08-04T04:27:20;100804.47;;;20.13;56.84
64632;BME280;58358;50.936;0.246;2022-08-04T04:29:55;100810.15;;;19.85;56.67
64632;BME280;58358;50.936;0.246;2022-08-04T04:32:16;100807.73;;;19.17;56.21
64632;BME280;58358;50.936;0.246;2022-08-04T04:34:39;100807.65;;;19.77;56.24
64632;BME280;58358;50.936;0.246;2022-08-04T04:37:10;100815.30;;;19.87;55.43
64632;BME280;58358;50.936;0.246;2022-08-04T04:39:29;100815.96;;;19.79;55.84
64632;BME280;58358;50.936;0.246;2022-08-04T04:42:03;100816.03;;;19.62;55.27
64632;BME280;58358;50.936;0.246;2022-08-04T04:44:27;100815.85;;;20.08;55.06
64632;BME280;58358;50.936;0.246;2022-08-04T04:46:45;100809.02;;;19.60;55.22
64632;BME280;58358;50.936;0.246;2022-08-04T04:49:10;100818.22;;;20.00;53.52
64632;BME280;58358;50.936;0.246;2022-08-04T04:51:36;100814.23;;;19.33;55.67
64632;BME280;58358;50.936;0.246;2022-08-04T04:54:00;100818.39;;;20.12;52.80
64632;BME280;58358;50.936;0.246;2022-08-04T04:56:26;100820.58;;;20.30;53.12
64632;BME280;58358;50.936;0.246;2022-08-04T04:58:46;100816.31;;;19.01;54.30
64632;BME280;58358;50.936;0.246;2022-08-04T05:01:31;100820.53;;;19.27;54.26
64632;BME280;58358;50.936;0.246;2022-08-04T05:03:50;100825.42;;;19.14;54.77
64632;BME280;58358;50.936;0.246;2022-08-04T05:06:17;100834.27;;;20.22;52.68
64632;BME280;58358;50.936;0.246;2022-08-04T05:08:41;100838.46;;;19.91;52.80
64632;BME280;58358;50.936;0.246;2022-08-04T05:11:14;100838.87;;;20.69;51.57
64632;BME280;58358;50.936;0.246;2022-08-04T05:13:33;100840.36;;;19.33;53.69
64632;BME280;58358;50.936;0.246;2022-08-04T05:15:48;100844.52;;;19.11;53.33
64632;BME280;58358;50.936;0.246;2022-08-04T05:18:15;100845.35;;;19.36;53.11
64632;BME280;58358;50.936;0.246;2022-08-04T05:20:39;100847.11;;;20.40;51.13
64632;BME280;58358;50.936;0.246;2022-08-04T05:23:06;100848.66;;;18.64;53.46
64632;BME280;58358;50.936;0.246;2022-08-04T05:25:33;100851.15;;;19.84;51.22
64632;BME280;58358;50.936;0.246;2022-08-04T05:27:58;100849.75;;;20.44;50.18
64632;BME280;58358;50.936;0.246;2022-08-04T05:30:19;100850.59;;;19.70;52.62
64632;BME280;58358;50.936;0.246;2022-08-04T05:32:49;100853.40;;;19.38;52.11
64632;BME280;58358;50.936;0.246;2022-08-04T05:35:18;100860.04;;;20.70;50.04
64632;BME280;58358;50.936;0.246;2022-08-04T05:37:37;100861.58;;;19.61;52.60
64632;BME280;58358;50.936;0.246;2022-08-04T05:40:03;100864.58;;;20.36;50.51
64632;BME280;58358;50.936;0.246;2022-08-04T05:42:27;100868.15;;;20.59;49.97
64632;BME280;58358;50.936;0.246;2022-08-04T05:44:53;100867.31;;;20.93;48.94
64632;BME280;58358;50.936;0.246;2022-08-04T05:47:18;100868.49;;;18.72;52.69
64632;BME280;58358;50.936;0.246;2022-08-04T05:49:44;100870.07;;;19.17;50.83
64632;BME280;58358;50.936;0.246;2022-08-04T05:52:09;100871.62;;;19.29;50.52
64632;BME280;58358;50.936;0.246;2022-08-04T05:54:35;100871.10;;;19.74;49.42
64632;BME280;58358;50.936;0.246;2022-08-04T05:57:02;100874.30;;;20.15;48.92
64632;BME280;58358;50.936;0.246;2022-08-04T05:59:26;100877.01;;;20.10;49.12
64632;BME280;58358;50.936;0.246;2022-08-04T06:01:55;100877.18;;;19.45;49.43
64632;BME280;58358;50.936;0.246;2022-08-04T06:04:18;100884.50;;;19.24;49.54
64632;BME280;58358;50.936;0.246;2022-08-04T06:06:44;100887.32;;;18.63;49.74
64632;BME280;58358;50.936;0.246;2022-08-04T06:09:09;100888.25;;;20.40;47.43
64632;BME280;58358;50.936;0.246;2022-08-04T06:11:34;100893.14;;;20.69;46.69
64632;BME280;58358;50.936;0.246;2022-08-04T06:14:02;100887.25;;;19.58;48.16
64632;BME280;58358;50.936;0.246;2022-08-04T06:16:30;100889.39;;;18.55;49.17
64632;BME280;58358;50.936;0.246;2022-08-04T06:18:52;100892.04;;;19.98;46.56
64632;BME280;58358;50.936;0.246;2022-08-04T06:21:19;100892.98;;;20.21;45.90
64632;BME280;58358;50.936;0.246;2022-08-04T06:23:44;100895.62;;;19.58;46.06
64632;BME280;58358;50.936;0.246;2022-08-04T06:26:10;100897.45;;;17.58;50.03
64632;BME280;58358;50.936;0.246;2022-08-04T06:28:34;100899.34;;;18.80;50.03
64632;BME280;58358;50.936;0.246;2022-08-04T06:31:00;100894.59;;;19.67;47.42
64632;BME280;58358;50.936;0.246;2022-08-04T06:33:25;100897.85;;;18.77;48.36
64632;BME280;58358;50.936;0.246;2022-08-04T06:35:51;100895.37;;;19.80;46.54
64632;BME280;58358;50.936;0.246;2022-08-04T06:38:16;100896.27;;;18.23;49.17
64632;BME280;58358;50.936;0.246;2022-08-04T06:40:42;100891.66;;;19.30;47.90
64632;BME280;58358;50.936;0.246;2022-08-04T06:43:08;100896.00;;;18.99;48.31
64632;BME280;58358;50.936;0.246;2022-08-04T06:45:36;100894.41;;;19.14;47.19
64632;BME280;58358;50.936;0.246;2022-08-04T06:47:59;100898.37;;;20.08;46.52
64632;BME280;58358;50.936;0.246;2022-08-04T06:50:24;100900.98;;;20.36;45.12
64632;BME280;58358;50.936;0.246;2022-08-04T06:52:49;100899.17;;;19.45;47.06
64632;BME280;58358;50.936;0.246;2022-08-04T06:55:15;100902.73;;;18.60;49.22
64632;BME280;58358;50.936;0.246;2022-08-04T06:57:41;100899.04;;;17.97;49.75
64632;BME280;58358;50.936;0.246;2022-08-04T07:00:08;100902.34;;;19.15;47.28
64632;BME280;58358;50.936;0.246;2022-08-04T07:02:39;100900.51;;;18.00;51.02
64632;BME280;58358;50.936;0.246;2022-08-04T07:04:57;100900.45;;;18.59;50.08
64632;BME280;58358;50.936;0.246;2022-08-04T07:07:23;100895.13;;;18.18;50.50
64632;BME280;58358;50.936;0.246;2022-08-04T07:09:48;100896.64;;;17.95;49.93
64632;BME280;58358;50.936;0.246;2022-08-04T07:12:15;100896.95;;;18.19;50.10
64632;BME280;58358;50.936;0.246;2022-08-04T07:14:40;100896.35;;;18.50;49.41
64632;BME280;58358;50.936;0.246;2022-08-04T07:17:07;100902.34;;;17.11;51.35
64632;BME280;58358;50.936;0.246;2022-08-04T07:19:31;100897.18;;;18.42;50.54
64632;BME280;58358;50.936;0.246;2022-08-04T07:21:57;100902.34;;;18.39;49.97
64632;BME280;58358;50.936;0.246;2022-08-04T07:24:28;100903.71;;;18.00;51.18
64632;BME280;58358;50.936;0.246;2022-08-04T07:26:49;100901.69;;;17.03;52.49
64632;BME280;58358;50.936;0.246;2022-08-04T07:29:13;100898.74;;;18.70;49.85
64632;BME280;58358;50.936;0.246;2022-08-04T07:31:38;100898.98;;;18.53;49.92
64632;BME280;58358;50.936;0.246;2022-08-04T07:34:04;100899.48;;;18.36;48.82
64632;BME280;58358;50.936;0.246;2022-08-04T07:36:29;100901.43;;;18.79;47.24
64632;BME280;58358;50.936;0.246;2022-08-04T07:38:55;100898.59;;;18.23;48.79
64632;BME280;58358;50.936;0.246;2022-08-04T07:41:22;100906.24;;;18.14;48.72
64632;BME280;58358;50.936;0.246;2022-08-04T07:43:47;100906.87;;;18.43;48.73
64632;BME280;58358;50.936;0.246;2022-08-04T07:46:11;100907.08;;;19.05;47.06
64632;BME280;58358;50.936;0.246;2022-08-04T07:48:37;100904.96;;;19.16;46.34
64632;BME280;58358;50.936;0.246;2022-08-04T07:51:02;100907.65;;;19.91;44.30
64632;BME280;58358;50.936;0.246;2022-08-04T07:53:28;100920.86;;;19.05;46.85
64632;BME280;58358;50.936;0.246;2022-08-04T07:55:54;100919.90;;;17.92;48.32
64632;BME280;58358;50.936;0.246;2022-08-04T07:58:19;100917.33;;;17.89;49.16
64632;BME280;58358;50.936;0.246;2022-08-04T08:00:46;100922.26;;;18.19;47.53
64632;BME280;58358;50.936;0.246;2022-08-04T08:03:11;100922.34;;;18.15;46.77
64632;BME280;58358;50.936;0.246;2022-08-04T08:05:38;100926.03;;;18.14;46.93
64632;BME280;58358;50.936;0.246;2022-08-04T08:08:03;100927.11;;;18.13;47.57
64632;BME280;58358;50.936;0.246;2022-08-04T08:10:27;100923.17;;;18.53;46.63
64632;BME280;58358;50.936;0.246;2022-08-04T08:12:53;100921.75;;;17.98;47.07
64632;BME280;58358;50.936;0.246;2022-08-04T08:15:18;100925.57;;;19.52;43.88
64632;BME280;58358;50.936;0.246;2022-08-04T08:17:44;100920.42;;;18.17;45.26
64632;BME280;58358;50.936;0.246;2022-08-04T08:20:10;100926.59;;;19.07;44.87
64632;BME280;58358;50.936;0.246;2022-08-04T08:22:35;100925.77;;;18.82;44.15
64632;BME280;58358;50.936;0.246;2022-08-04T08:25:00;100922.70;;;19.80;43.40
64632;BME280;58358;50.936;0.246;2022-08-04T08:27:26;100919.53;;;19.30;44.22
64632;BME280;58358;50.936;0.246;2022-08-04T08:29:52;100919.20;;;19.08;43.93
64632;BME280;58358;50.936;0.246;2022-08-04T08:32:18;100922.26;;;19.33;43.22
64632;BME280;58358;50.936;0.246;2022-08-04T08:34:44;100918.61;;;19.02;44.06
64632;BME280;58358;50.936;0.246;2022-08-04T08:37:14;100919.70;;;19.15;44.04
64632;BME280;58358;50.936;0.246;2022-08-04T08:39:38;100918.27;;;19.57;42.84
64632;BME280;58358;50.936;0.246;2022-08-04T08:42:20;100918.65;;;19.72;43.45
64632;BME280;58358;50.936;0.246;2022-08-04T08:47:01;100916.28;;;19.17;43.65
64632;BME280;58358;50.936;0.246;2022-08-04T08:51:52;100918.83;;;19.32;44.06
64632;BME280;58358;50.936;0.246;2022-08-04T08:54:27;100916.91;;;18.57;44.81
64632;BME280;58358;50.936;0.246;2022-08-04T08:56:38;100919.87;;;19.18;43.95
64632;BME280;58358;50.936;0.246;2022-08-04T08:59:12;100913.73;;;19.43;43.06
64632;BME280;58358;50.936;0.246;2022-08-04T09:01:43;100916.27;;;19.04;43.87
64632;BME280;58358;50.936;0.246;2022-08-04T09:08:54;100924.27;;;18.71;43.08
64632;BME280;58358;50.936;0.246;2022-08-04T09:11:11;100928.76;;;19.06;41.74
64632;BME280;58358;50.936;0.246;2022-08-04T09:13:38;100917.95;;;18.69;42.84
64632;BME280;58358;50.936;0.246;2022-08-04T09:16:03;100923.97;;;19.03;42.15
64632;BME280;58358;50.936;0.246;2022-08-04T09:18:29;100917.25;;;18.69;42.18
64632;BME280;58358;50.936;0.246;2022-08-04T09:20:55;100914.04;;;19.50;40.58
64632;BME280;58358;50.936;0.246;2022-08-04T09:23:23;100917.17;;;19.87;40.54
64632;BME280;58358;50.936;0.246;2022-08-04T09:25:48;100918.74;;;19.71;41.39
64632;BME280;58358;50.936;0.246;2022-08-04T09:28:12;100922.46;;;19.18;43.29
64632;BME280;58358;50.936;0.246;2022-08-04T09:30:38;100921.19;;;19.61;40.79
64632;BME280;58358;50.936;0.246;2022-08-04T09:33:06;100920.76;;;20.87;39.08
64632;BME280;58358;50.936;0.246;2022-08-04T09:35:33;100922.22;;;19.91;38.97
64632;BME280;58358;50.936;0.246;2022-08-04T09:38:01;100924.49;;;20.72;38.05
64632;BME280;58358;50.936;0.246;2022-08-04T09:40:20;100924.21;;;20.18;39.69
64632;BME280;58358;50.936;0.246;2022-08-04T09:42:47;100927.42;;;21.12;38.67
64632;BME280;58358;50.936;0.246;2022-08-04T09:45:11;100926.34;;;19.62;40.55
64632;BME280;58358;50.936;0.246;2022-08-04T09:47:35;100928.70;;;19.53;39.64
64632;BME280;58358;50.936;0.246;2022-08-04T09:50:03;100935.96;;;19.67;40.76
64632;BME280;58358;50.936;0.246;2022-08-04T09:52:34;100933.47;;;19.68;39.78
64632;BME280;58358;50.936;0.246;2022-08-04T09:54:54;100937.49;;;19.78;40.25
64632;BME280;58358;50.936;0.246;2022-08-04T09:57:23;100931.71;;;19.59;41.07
64632;BME280;58358;50.936;0.246;2022-08-04T09:59:44;100929.11;;;19.44;41.62
64632;BME280;58358;50.936;0.246;2022-08-04T10:02:07;100927.46;;;19.85;40.45
64632;BME280;58358;50.936;0.246;2022-08-04T10:04:31;100931.41;;;20.18;40.43
64632;BME280;58358;50.936;0.246;2022-08-04T10:07:08;100937.62;;;19.75;40.39
64632;BME280;58358;50.936;0.246;2022-08-04T10:09:30;100937.75;;;20.61;38.80
64632;BME280;58358;50.936;0.246;2022-08-04T10:12:00;100946.69;;;19.32;39.77
64632;BME280;58358;50.936;0.246;2022-08-04T10:14:19;100953.23;;;20.41;38.13
64632;BME280;58358;50.936;0.246;2022-08-04T10:16:45;100944.82;;;20.17;37.88
64632;BME280;58358;50.936;0.246;2022-08-04T10:19:14;100942.06;;;20.25;37.90
64632;BME280;58358;50.936;0.246;2022-08-04T10:21:35;100942.41;;;21.25;37.08
64632;BME280;58358;50.936;0.246;2022-08-04T10:24:09;100947.31;;;20.92;37.19
64632;BME280;58358;50.936;0.246;2022-08-04T10:26:28;100939.52;;;20.33;38.29
64632;BME280;58358;50.936;0.246;2022-08-04T10:28:54;100943.17;;;20.10;38.46
64632;BME280;58358;50.936;0.246;2022-08-04T10:31:18;100944.28;;;20.55;38.29
64632;BME280;58358;50.936;0.246;2022-08-04T10:33:42;100944.73;;;21.61;36.57
64632;BME280;58358;50.936;0.246;2022-08-04T10:36:07;100935.61;;;20.59;38.96
64632;BME280;58358;50.936;0.246;2022-08-04T10:38:30;100934.93;;;20.84;37.55
64632;BME280;58358;50.936;0.246;2022-08-04T10:40:59;100940.46;;;19.92;38.91
64632;BME280;58358;50.936;0.246;2022-08-04T10:43:28;100945.92;;;20.56;38.30
64632;BME280;58358;50.936;0.246;2022-08-04T10:45:49;100944.88;;;20.22;37.60
64632;BME280;58358;50.936;0.246;2022-08-04T10:48:19;100944.73;;;21.25;36.31
64632;BME280;58358;50.936;0.246;2022-08-04T10:50:41;100945.67;;;21.01;36.52
64632;BME280;58358;50.936;0.246;2022-08-04T10:53:06;100948.83;;;21.41;34.17
64632;BME280;58358;50.936;0.246;2022-08-04T10:55:34;100942.00;;;21.21;33.82
64632;BME280;58358;50.936;0.246;2022-08-04T10:58:00;100939.27;;;21.41;35.01
64632;BME280;58358;50.936;0.246;2022-08-04T11:00:23;100939.32;;;21.03;36.22
64632;BME280;58358;50.936;0.246;2022-08-04T11:02:51;100936.97;;;20.71;36.63
64632;BME280;58358;50.936;0.246;2022-08-04T11:05:16;100937.32;;;20.81;36.61
64632;BME280;58358;50.936;0.246;2022-08-04T11:07:37;100938.53;;;21.40;34.50
64632;BME280;58358;50.936;0.246;2022-08-04T11:10:01;100931.85;;;22.32;33.53
64632;BME280;58358;50.936;0.246;2022-08-04T11:12:27;100933.48;;;23.03;32.98
64632;BME280;58358;50.936;0.246;2022-08-04T11:14:57;100933.89;;;22.57;32.63
64632;BME280;58358;50.936;0.246;2022-08-04T11:17:21;100940.88;;;21.43;34.09
64632;BME280;58358;50.936;0.246;2022-08-04T11:19:48;100935.77;;;21.29;34.30
64632;BME280;58358;50.936;0.246;2022-08-04T11:22:10;100931.75;;;22.28;32.99
64632;BME280;58358;50.936;0.246;2022-08-04T11:24:39;100936.53;;;22.95;32.26
64632;BME280;58358;50.936;0.246;2022-08-04T11:27:03;100932.66;;;23.21;32.03
64632;BME280;58358;50.936;0.246;2022-08-04T11:29:31;100934.72;;;22.54;32.37
64632;BME280;58358;50.936;0.246;2022-08-04T11:31:53;100944.53;;;21.26;33.95
64632;BME280;58358;50.936;0.246;2022-08-04T11:34:21;100948.14;;;21.99;33.87
64632;BME280;58358;50.936;0.246;2022-08-04T11:36:48;100950.58;;;21.59;33.70
64632;BME280;58358;50.936;0.246;2022-08-04T11:39:13;100948.17;;;21.32;34.87
64632;BME280;58358;50.936;0.246;2022-08-04T11:41:41;100943.24;;;21.70;34.32
64632;BME280;58358;50.936;0.246;2022-08-04T11:43:59;100945.98;;;22.05;33.25
64632;BME280;58358;50.936;0.246;2022-08-04T11:46:28;100946.59;;;22.86;32.96
64632;BME280;58358;50.936;0.246;2022-08-04T11:48:57;100946.65;;;21.99;33.22
64632;BME280;58358;50.936;0.246;2022-08-04T11:51:16;100951.51;;;22.77;32.63
64632;BME280;58358;50.936;0.246;2022-08-04T11:53:42;100949.88;;;22.20;32.84
64632;BME280;58358;50.936;0.246;2022-08-04T11:56:10;100956.12;;;21.65;34.15
64632;BME280;58358;50.936;0.246;2022-08-04T11:58:32;100956.39;;;22.16;34.19
64632;BME280;58358;50.936;0.246;2022-08-04T12:01:04;100951.87;;;22.00;33.52
64632;BME280;58358;50.936;0.246;2022-08-04T12:03:31;100948.45;;;22.56;32.09
64632;BME280;58358;50.936;0.246;2022-08-04T12:05:56;100939.72;;;22.56;31.16
64632;BME280;58358;50.936;0.246;2022-08-04T12:08:27;100939.24;;;23.71;30.49
64632;BME280;58358;50.936;0.246;2022-08-04T12:10:46;100934.32;;;23.75;29.97
64632;BME280;58358;50.936;0.246;2022-08-04T12:13:17;100934.01;;;23.25;29.93
64632;BME280;58358;50.936;0.246;2022-08-04T12:15:36;100930.02;;;22.75;31.43
64632;BME280;58358;50.936;0.246;2022-08-04T12:18:06;100931.35;;;23.12;31.28
64632;BME280;58358;50.936;0.246;2022-08-04T12:20:24;100927.64;;;22.97;31.51
64632;BME280;58358;50.936;0.246;2022-08-04T12:22:50;100922.96;;;23.37;30.89
64632;BME280;58358;50.936;0.246;2022-08-04T12:25:19;100919.31;;;22.73;31.40
64632;BME280;58358;50.936;0.246;2022-08-04T12:27:43;100929.92;;;22.69;32.15
64632;BME280;58358;50.936;0.246;2022-08-04T12:30:05;100934.08;;;21.97;31.76
64632;BME280;58358;50.936;0.246;2022-08-04T12:32:36;100938.53;;;22.72;31.45
64632;BME280;58358;50.936;0.246;2022-08-04T12:35:06;100935.50;;;22.35;31.33
64632;BME280;58358;50.936;0.246;2022-08-04T12:37:27;100932.10;;;22.27;31.70
64632;BME280;58358;50.936;0.246;2022-08-04T12:39:49;100945.13;;;21.58;31.84
64632;BME280;58358;50.936;0.246;2022-08-04T12:42:14;100939.04;;;22.06;31.99
64632;BME280;58358;50.936;0.246;2022-08-04T12:44:39;100941.51;;;22.54;30.22
64632;BME280;58358;50.936;0.246;2022-08-04T12:47:04;100932.52;;;24.45;28.13
64632;BME280;58358;50.936;0.246;2022-08-04T12:49:30;100935.43;;;24.20;27.80
64632;BME280;58358;50.936;0.246;2022-08-04T12:51:55;100934.55;;;24.68;28.00
64632;BME280;58358;50.936;0.246;2022-08-04T12:54:23;100928.26;;;24.81;27.75
64632;BME280;58358;50.936;0.246;2022-08-04T12:56:45;100927.12;;;24.88;27.34
64632;BME280;58358;50.936;0.246;2022-08-04T12:59:11;100933.26;;;23.64;28.94
64632;BME280;58358;50.936;0.246;2022-08-04T13:01:36;100933.08;;;23.62;30.02
64632;BME280;58358;50.936;0.246;2022-08-04T13:04:10;100934.18;;;24.87;28.05
64632;BME280;58358;50.936;0.246;2022-08-04T13:06:30;100931.19;;;24.71;28.69
64632;BME280;58358;50.936;0.246;2022-08-04T13:08:54;100934.41;;;23.81;29.62
64632;BME280;58358;50.936;0.246;2022-08-04T13:11:18;100935.51;;;24.42;29.64
64632;BME280;58358;50.936;0.246;2022-08-04T13:13:44;100926.44;;;23.80;29.95
64632;BME280;58358;50.936;0.246;2022-08-04T13:16:10;100925.04;;;24.70;29.41